createdAt,value
2022-08-25T00:00:15.180Z,7.80
2022-08-25T00:02:51.638Z,9.77
2022-08-25T00:05:29.451Z,5.13
2022-08-25T00:08:02.063Z,8.60
2022-08-25T00:10:29.488Z,7.97
2022-08-25T00:12:56.281Z,10.35
2022-08-25T00:15:23.144Z,7.30
2022-08-25T00:17:50.596Z,7.07
2022-08-25T00:20:17.913Z,6.13
2022-08-25T00:22:45.337Z,6.72
2022-08-25T00:25:12.786Z,6.25
2022-08-25T00:27:39.540Z,9.35
2022-08-25T00:30:07.192Z,5.82
2022-08-25T00:32:33.978Z,6.85
2022-08-25T00:35:00.973Z,4.22
2022-08-25T00:37:27.913Z,9.15
2022-08-25T00:39:57.049Z,7.00
2022-08-25T00:42:25.729Z,9.57
2022-08-25T00:44:53.015Z,9.02
2022-08-25T00:47:20.417Z,7.38
2022-08-25T00:49:51.790Z,9.57
2022-08-25T00:52:42.143Z,9.25
2022-08-25T00:55:18.710Z,7.50
2022-08-25T00:57:56.175Z,8.65
2022-08-25T01:00:28.601Z,8.95
2022-08-25T01:02:56.819Z,9.38
2022-08-25T01:05:24.769Z,4.97
2022-08-25T01:07:52.699Z,9.40
2022-08-25T01:10:26.997Z,4.82
2022-08-25T01:12:58.534Z,8.70
2022-08-25T01:15:25.362Z,8.43
2022-08-25T01:17:55.737Z,9.13
2022-08-25T01:20:29.366Z,9.95
2022-08-25T01:22:57.438Z,5.82
2022-08-25T01:25:47.812Z,11.25
2022-08-25T01:29:01.386Z,9.38
2022-08-25T01:31:47.418Z,6.07
2022-08-25T01:34:34.198Z,6.22
2022-08-25T01:37:01.419Z,8.50
2022-08-25T01:39:30.480Z,6.18
2022-08-25T01:42:03.133Z,6.90
2022-08-25T01:44:39.871Z,6.90
2022-08-25T01:48:02.881Z,9.75
2022-08-25T01:50:30.307Z,8.30
2022-08-25T01:56:19.291Z,10.88
2022-08-25T01:59:18.975Z,10.95
2022-08-25T02:01:51.913Z,10.75
2022-08-25T02:04:32.047Z,10.48
2022-08-25T02:07:04.234Z,6.85
2022-08-25T02:09:31.728Z,7.93
2022-08-25T02:11:59.255Z,11.63
2022-08-25T02:15:09.776Z,6.25
2022-08-25T02:17:37.401Z,8.73
2022-08-25T02:20:10.852Z,8.77
2022-08-25T02:22:37.639Z,5.60
2022-08-25T02:25:06.381Z,6.68
2022-08-25T02:27:33.468Z,7.95
2022-08-25T02:30:01.428Z,11.23
2022-08-25T02:32:28.261Z,11.55
2022-08-25T02:34:55.075Z,9.85
2022-08-25T02:37:21.822Z,8.07
2022-08-25T02:39:48.741Z,12.32
2022-08-25T02:42:15.580Z,10.15
2022-08-25T02:44:42.370Z,6.97
2022-08-25T02:47:09.177Z,13.60
2022-08-25T02:49:35.998Z,11.02
2022-08-25T02:52:03.132Z,9.57
2022-08-25T02:54:30.508Z,9.32
2022-08-25T02:56:57.279Z,8.82
2022-08-25T02:59:24.050Z,6.25
2022-08-25T03:01:50.792Z,11.80
2022-08-25T03:04:18.232Z,10.00
2022-08-25T03:06:46.204Z,9.05
2022-08-25T03:09:13.245Z,10.27
2022-08-25T03:11:40.472Z,7.63
2022-08-25T03:14:09.753Z,9.43
2022-08-25T03:16:37.182Z,7.40
2022-08-25T03:19:04.222Z,10.13
2022-08-25T03:21:32.877Z,9.30
2022-08-25T03:24:00.673Z,8.07
2022-08-25T03:26:46.321Z,8.73
2022-08-25T03:29:13.892Z,9.70
2022-08-25T03:31:43.871Z,7.63
2022-08-25T03:34:16.923Z,11.55
2022-08-25T03:36:45.103Z,12.85
2022-08-25T03:39:12.727Z,13.77
2022-08-25T03:41:39.594Z,9.70
2022-08-25T03:44:08.087Z,13.95
2022-08-25T03:46:38.885Z,11.05
2022-08-25T03:49:09.511Z,11.85
2022-08-25T03:51:40.470Z,13.40
2022-08-25T03:54:08.742Z,8.35
2022-08-25T03:56:35.860Z,10.85
2022-08-25T03:59:03.956Z,14.57
2022-08-25T04:01:30.872Z,13.00
2022-08-25T04:03:57.756Z,10.48
2022-08-25T04:06:24.584Z,13.20
2022-08-25T04:08:52.758Z,14.93
2022-08-25T04:11:21.821Z,13.02
2022-08-25T04:13:49.028Z,11.82
2022-08-25T04:16:22.938Z,8.35
2022-08-25T04:18:50.934Z,12.63
2022-08-25T04:21:18.704Z,13.63
2022-08-25T04:23:47.931Z,13.55
2022-08-25T04:26:20.455Z,11.48
2022-08-25T04:28:47.857Z,10.18
2022-08-25T04:31:16.532Z,12.20
2022-08-25T04:33:44.048Z,14.23
2022-08-25T04:36:12.549Z,13.57
2022-08-25T04:38:41.349Z,11.77
2022-08-25T04:41:10.681Z,9.63
2022-08-25T04:43:39.319Z,14.38
2022-08-25T04:46:08.521Z,11.10
2022-08-25T04:48:35.452Z,14.80
2022-08-25T04:51:07.617Z,10.88
2022-08-25T04:53:34.930Z,15.55
2022-08-25T04:56:04.039Z,18.08
2022-08-25T04:58:31.145Z,14.70
2022-08-25T05:01:10.314Z,10.68
2022-08-25T05:03:38.385Z,14.65
2022-08-25T05:06:06.158Z,11.75
2022-08-25T05:08:33.885Z,12.75
2022-08-25T05:11:06.226Z,18.00
2022-08-25T05:13:33.040Z,15.23
2022-08-25T05:16:00.961Z,14.93
2022-08-25T05:18:31.003Z,17.83
2022-08-25T05:21:02.793Z,15.63
2022-08-25T05:23:30.043Z,14.25
2022-08-25T05:26:01.578Z,10.93
2022-08-25T05:28:28.445Z,13.50
2022-08-25T05:30:59.333Z,12.55
2022-08-25T05:33:26.509Z,18.92
2022-08-25T05:35:57.864Z,13.57
2022-08-25T05:38:25.006Z,10.45
2022-08-25T05:41:03.016Z,11.63
2022-08-25T05:43:30.229Z,13.70
2022-08-25T05:45:58.392Z,12.60
2022-08-25T05:48:26.710Z,14.68
2022-08-25T05:50:55.003Z,12.15
2022-08-25T05:53:23.045Z,13.50
2022-08-25T05:55:51.871Z,15.20
2022-08-25T05:58:18.736Z,14.90
2022-08-25T06:00:45.691Z,15.77
2022-08-25T06:03:13.161Z,17.30
2022-08-25T06:05:41.094Z,12.25
2022-08-25T06:08:08.308Z,12.07
2022-08-25T06:10:35.425Z,15.70
2022-08-25T06:13:02.280Z,13.48
2022-08-25T06:15:29.101Z,16.92
2022-08-25T06:18:00.989Z,15.55
2022-08-25T06:20:30.924Z,12.38
2022-08-25T06:22:58.328Z,15.55
2022-08-25T06:25:26.573Z,13.13
2022-08-25T06:27:55.102Z,14.43
2022-08-25T06:30:28.498Z,16.70
2022-08-25T06:32:55.749Z,14.40
2022-08-25T06:35:22.855Z,13.50
2022-08-25T06:37:49.868Z,12.57
2022-08-25T06:40:17.373Z,14.88
2022-08-25T06:42:48.604Z,12.38
2022-08-25T06:45:15.761Z,13.70
2022-08-25T06:47:43.010Z,16.60
2022-08-25T06:50:12.661Z,13.27
2022-08-25T06:52:39.500Z,12.77
2022-08-25T06:55:06.815Z,13.82
2022-08-25T06:57:35.878Z,15.35
2022-08-25T07:00:05.991Z,14.55
2022-08-25T07:02:35.235Z,14.50
2022-08-25T07:05:02.968Z,17.13
2022-08-25T07:07:43.585Z,11.68
2022-08-25T07:10:11.422Z,13.32
2022-08-25T07:12:38.673Z,13.52
2022-08-25T07:15:21.307Z,10.13
2022-08-25T07:17:49.327Z,10.98
2022-08-25T07:20:19.226Z,12.45
2022-08-25T07:22:48.106Z,11.85
2022-08-25T07:25:14.941Z,13.35
2022-08-25T07:27:44.773Z,15.00
2022-08-25T07:30:11.649Z,19.52
2022-08-25T07:32:43.038Z,17.50
2022-08-25T07:35:18.828Z,14.15
2022-08-25T07:37:50.115Z,10.32
2022-08-25T07:40:26.316Z,12.98
2022-08-25T07:42:56.372Z,14.20
2022-08-25T07:45:30.421Z,13.00
2022-08-25T07:48:02.874Z,13.25
2022-08-25T07:50:31.317Z,10.10
2022-08-25T07:52:58.812Z,14.95
2022-08-25T07:55:27.739Z,12.27
2022-08-25T07:57:57.205Z,10.40
2022-08-25T08:00:27.857Z,10.93
2022-08-25T08:02:55.385Z,11.27
2022-08-25T08:05:23.841Z,11.35
2022-08-25T08:07:51.493Z,13.10
2022-08-25T08:13:07.697Z,12.93
2022-08-25T08:15:35.548Z,13.43
2022-08-25T08:18:05.233Z,11.65
2022-08-25T08:20:42.721Z,9.82
2022-08-25T08:23:11.138Z,10.52
2022-08-25T08:25:37.949Z,9.75
2022-08-25T08:28:04.775Z,11.60
2022-08-25T08:30:36.517Z,9.98
2022-08-25T08:33:10.184Z,13.57
2022-08-25T08:35:38.309Z,10.68
2022-08-25T08:38:13.513Z,9.27
2022-08-25T08:41:22.944Z,13.13
2022-08-25T08:44:00.679Z,10.30
2022-08-25T08:46:58.920Z,9.75
2022-08-25T08:49:46.555Z,9.55
2022-08-25T08:52:17.744Z,8.80
2022-08-25T08:54:47.060Z,12.52
2022-08-25T08:57:17.702Z,7.90
2022-08-25T08:59:51.867Z,9.10
2022-08-25T09:02:51.345Z,14.07
2022-08-25T09:05:20.641Z,8.88
2022-08-25T09:07:56.117Z,9.88
2022-08-25T09:10:26.197Z,11.30
2022-08-25T09:13:02.574Z,9.70
2022-08-25T09:16:20.667Z,7.60
2022-08-25T09:18:56.361Z,9.07
2022-08-25T09:21:50.826Z,7.72
2022-08-25T09:24:32.599Z,10.82
2022-08-25T09:27:21.259Z,11.45
2022-08-25T09:30:10.334Z,16.48
2022-08-25T09:33:05.263Z,8.98
2022-08-25T09:35:35.726Z,7.82
2022-08-25T09:38:05.727Z,10.65
2022-08-25T09:40:35.493Z,9.13
2022-08-25T09:43:09.346Z,9.27
2022-08-25T09:45:48.877Z,6.88
2022-08-25T09:48:42.706Z,7.22
2022-08-25T09:51:42.267Z,7.18
2022-08-25T09:54:15.786Z,8.25
2022-08-25T09:56:54.423Z,7.22
2022-08-25T09:59:30.833Z,8.80
2022-08-25T10:02:28.915Z,9.30
2022-08-25T10:04:57.108Z,8.77
2022-08-25T10:07:30.065Z,7.38
2022-08-25T10:10:01.618Z,7.72
2022-08-25T10:12:42.641Z,9.35
2022-08-25T10:15:29.671Z,8.27
2022-08-25T10:18:27.329Z,8.45
2022-08-25T10:21:02.564Z,8.27
2022-08-25T10:26:04.413Z,5.47
2022-08-25T10:28:38.876Z,8.07
2022-08-25T10:31:09.686Z,7.43
2022-08-25T10:33:37.125Z,6.00
2022-08-25T10:36:05.414Z,6.13
2022-08-25T10:38:38.635Z,6.68
2022-08-25T10:41:09.976Z,5.55
2022-08-25T10:43:48.716Z,8.23
2022-08-25T10:46:33.938Z,5.55
2022-08-25T10:49:30.275Z,10.68
2022-08-25T10:52:09.725Z,9.43
2022-08-25T10:54:43.237Z,4.90
2022-08-25T10:57:10.439Z,4.85
2022-08-25T10:59:40.784Z,5.40
2022-08-25T11:02:20.149Z,6.75
2022-08-25T11:05:02.758Z,6.15
2022-08-25T11:07:44.897Z,4.88
2022-08-25T11:10:16.081Z,7.55
2022-08-25T11:12:45.348Z,6.82
2022-08-25T11:15:22.983Z,5.80
2022-08-25T11:17:56.950Z,5.38
2022-08-25T11:20:28.491Z,3.97
2022-08-25T11:23:15.647Z,9.85
2022-08-25T11:25:44.568Z,5.72
2022-08-25T11:28:32.121Z,5.75
2022-08-25T11:31:00.643Z,4.70
2022-08-25T11:33:29.948Z,4.72
2022-08-25T11:36:02.900Z,6.15
2022-08-25T11:38:48.764Z,5.28
2022-08-25T11:41:32.053Z,4.97
2022-08-25T11:44:10.641Z,6.20
2022-08-25T11:46:46.783Z,6.88
2022-08-25T11:49:14.021Z,4.85
2022-08-25T11:51:43.218Z,5.05
2022-08-25T11:54:24.818Z,6.85
2022-08-25T11:57:04.276Z,7.80
2022-08-25T11:59:50.143Z,5.43
2022-08-25T12:02:36.465Z,4.05
2022-08-25T12:05:07.005Z,9.30
2022-08-25T12:08:12.158Z,6.90
2022-08-25T12:10:54.877Z,4.70
2022-08-25T12:13:27.664Z,7.82
2022-08-25T12:15:56.736Z,7.13
2022-08-25T12:18:30.474Z,7.72
2022-08-25T12:20:57.894Z,5.25
2022-08-25T12:23:33.513Z,5.10
2022-08-25T12:26:04.022Z,4.88
2022-08-25T12:28:37.342Z,9.63
2022-08-25T12:31:10.266Z,9.10
2022-08-25T12:34:12.781Z,5.80
2022-08-25T12:36:40.248Z,6.90
2022-08-25T12:39:19.392Z,4.55
2022-08-25T12:41:56.748Z,4.63
2022-08-25T12:44:39.601Z,6.68
2022-08-25T12:47:27.239Z,5.95
2022-08-25T12:50:14.368Z,6.20
2022-08-25T12:52:41.898Z,7.38
2022-08-25T12:55:11.478Z,5.38
2022-08-25T12:57:41.188Z,5.47
2022-08-25T13:00:16.269Z,7.65
2022-08-25T13:03:02.441Z,9.30
2022-08-25T13:05:33.564Z,8.45
2022-08-25T13:08:19.891Z,5.20
2022-08-25T13:10:49.529Z,6.07
2022-08-25T13:13:35.365Z,5.68
2022-08-25T13:16:16.225Z,6.35
2022-08-25T13:18:43.664Z,4.20
2022-08-25T13:21:45.055Z,7.75
2022-08-25T13:24:21.368Z,4.45
2022-08-25T13:26:51.072Z,7.18
2022-08-25T13:29:22.967Z,4.75
2022-08-25T13:31:51.982Z,5.50
2022-08-25T13:34:22.992Z,6.25
2022-08-25T13:37:30.441Z,5.97
2022-08-25T13:40:28.084Z,5.25
2022-08-25T13:43:09.398Z,6.30
2022-08-25T13:45:41.185Z,5.90
2022-08-25T13:48:22.555Z,5.60
2022-08-25T13:50:52.689Z,7.32
2022-08-25T13:53:30.687Z,5.03
2022-08-25T13:56:03.486Z,4.97
2022-08-25T13:58:45.137Z,7.57
2022-08-25T14:01:22.158Z,6.03
2022-08-25T14:04:21.595Z,5.93
2022-08-25T14:06:49.376Z,6.07
2022-08-25T14:09:17.999Z,8.30
2022-08-25T14:11:56.580Z,8.57
2022-08-25T14:14:23.763Z,9.75
2022-08-25T14:16:54.220Z,5.20
2022-08-25T14:19:25.167Z,6.03
2022-08-25T14:21:56.761Z,8.07
2022-08-25T14:24:24.610Z,6.88
2022-08-25T14:26:53.843Z,5.30
2022-08-25T14:29:22.168Z,8.23
2022-08-25T14:31:49.956Z,8.05
2022-08-25T14:34:21.793Z,6.47
2022-08-25T14:36:50.049Z,9.13
2022-08-25T14:39:17.877Z,7.50
2022-08-25T14:41:51.089Z,15.32
2022-08-25T14:44:20.973Z,10.30
2022-08-25T14:46:51.466Z,12.07
2022-08-25T14:49:24.864Z,6.38
2022-08-25T14:51:52.451Z,15.95
2022-08-25T14:54:20.572Z,23.65
2022-08-25T14:56:49.316Z,9.80
2022-08-25T14:59:16.675Z,12.27
2022-08-25T15:01:44.014Z,8.63
2022-08-25T15:04:15.502Z,8.35
2022-08-25T15:06:43.964Z,10.82
2022-08-25T15:09:12.908Z,10.82
2022-08-25T15:11:44.519Z,14.48
2022-08-25T15:14:13.165Z,8.60
2022-08-25T15:16:42.298Z,6.10
2022-08-25T15:19:11.865Z,7.45
2022-08-25T15:21:39.507Z,9.05
2022-08-25T15:24:07.187Z,9.23
2022-08-25T15:26:36.575Z,7.07
2022-08-25T15:29:03.867Z,10.68
2022-08-25T15:31:31.171Z,9.70
2022-08-25T15:33:59.429Z,9.60
2022-08-25T15:36:27.085Z,8.82
2022-08-25T15:38:54.564Z,8.48
2022-08-25T15:41:27.097Z,13.60
2022-08-25T15:43:55.583Z,8.63
2022-08-25T15:46:24.736Z,9.27
2022-08-25T15:48:52.063Z,9.43
2022-08-25T15:51:19.247Z,8.85
2022-08-25T15:53:46.913Z,6.68
2022-08-25T15:56:26.900Z,11.30
2022-08-25T15:58:55.406Z,8.40
2022-08-25T16:01:24.763Z,7.95
2022-08-25T16:03:52.316Z,10.48
2022-08-25T16:06:19.678Z,7.80
2022-08-25T16:08:47.647Z,8.30
2022-08-25T16:11:19.249Z,12.40
2022-08-25T16:13:47.720Z,8.30
2022-08-25T16:16:15.931Z,9.18
2022-08-25T16:18:43.915Z,6.72
2022-08-25T16:21:15.704Z,8.88
2022-08-25T16:23:43.172Z,9.15
2022-08-25T16:26:12.969Z,7.25
2022-08-25T16:28:43.785Z,12.48
2022-08-25T16:31:12.386Z,8.65
2022-08-25T16:33:39.808Z,10.02
2022-08-25T16:36:07.039Z,9.73
2022-08-25T16:38:34.792Z,9.50
2022-08-25T16:41:05.658Z,8.85
2022-08-25T16:43:36.200Z,10.07
2022-08-25T16:46:05.175Z,11.07
2022-08-25T16:48:33.941Z,9.68
2022-08-25T16:51:01.173Z,10.55
2022-08-25T16:53:48.744Z,11.82
2022-08-25T16:56:16.028Z,10.95
2022-08-25T16:58:44.727Z,10.25
2022-08-25T17:01:13.468Z,9.77
2022-08-25T17:03:44.091Z,10.27
2022-08-25T17:06:11.616Z,13.70
2022-08-25T17:08:39.791Z,12.52
2022-08-25T17:11:11.995Z,16.40
2022-08-25T17:13:44.409Z,12.98
2022-08-25T17:16:12.165Z,12.55
2022-08-25T17:18:41.996Z,9.80
2022-08-25T17:21:10.556Z,10.27
2022-08-25T17:23:44.002Z,12.38
2022-08-25T17:26:14.819Z,11.05
2022-08-25T17:28:42.591Z,15.50
2022-08-25T17:31:11.935Z,10.73
2022-08-25T17:33:39.169Z,11.63
2022-08-25T17:36:07.400Z,12.15
2022-08-25T17:38:34.772Z,9.48
2022-08-25T17:41:03.387Z,12.52
2022-08-25T17:43:32.465Z,12.82
2022-08-25T17:45:59.805Z,9.90
2022-08-25T17:48:27.806Z,12.07
2022-08-25T17:50:55.363Z,12.35
2022-08-25T17:53:22.579Z,10.77
2022-08-25T17:55:57.265Z,12.45
2022-08-25T17:58:25.844Z,9.90
2022-08-25T18:00:55.221Z,12.30
2022-08-25T18:03:22.737Z,10.45
2022-08-25T18:05:50.914Z,13.23
2022-08-25T18:08:18.201Z,15.65
2022-08-25T18:10:46.913Z,13.20
2022-08-25T18:13:14.557Z,11.02
2022-08-25T18:15:42.461Z,16.92
2022-08-25T18:18:10.044Z,11.55
2022-08-25T18:20:40.521Z,11.27
2022-08-25T18:23:09.713Z,10.93
2022-08-25T18:25:37.115Z,14.77
2022-08-25T18:28:09.529Z,11.45
2022-08-25T18:30:36.816Z,14.98
2022-08-25T18:33:04.292Z,11.50
2022-08-25T18:35:31.624Z,17.45
2022-08-25T18:38:17.673Z,17.13
2022-08-25T18:40:48.489Z,14.77
2022-08-25T18:43:15.863Z,12.02
2022-08-25T18:45:47.747Z,17.73
2022-08-25T18:48:15.525Z,15.15
2022-08-25T18:50:43.970Z,11.50
2022-08-25T18:53:11.769Z,12.77
2022-08-25T18:55:40.314Z,20.45
2022-08-25T18:58:08.354Z,16.10
2022-08-25T19:00:41.718Z,12.52
2022-08-25T19:03:10.557Z,16.40
2022-08-25T19:05:41.500Z,11.65
2022-08-25T19:08:17.044Z,13.18
2022-08-25T19:10:50.377Z,16.80
2022-08-25T19:13:17.701Z,15.70
2022-08-25T19:15:50.055Z,15.50
2022-08-25T19:18:18.881Z,13.93
2022-08-25T19:20:53.508Z,14.85
2022-08-25T19:23:20.752Z,14.48
2022-08-25T19:25:48.109Z,15.13
2022-08-25T19:28:15.368Z,17.70
2022-08-25T19:30:49.953Z,14.40
2022-08-25T19:33:42.551Z,13.50
2022-08-25T19:36:06.326Z,16.73
2022-08-25T19:38:37.661Z,14.95
2022-08-25T19:41:14.125Z,15.27
2022-08-25T19:43:56.757Z,20.00
2022-08-25T19:46:33.392Z,13.60
2022-08-25T19:49:14.369Z,21.75
2022-08-25T19:51:44.096Z,15.63
2022-08-25T19:54:16.046Z,14.68
2022-08-25T19:56:53.998Z,17.30
2022-08-25T19:59:34.215Z,14.20
2022-08-25T20:02:05.976Z,16.98
2022-08-25T20:04:33.915Z,13.30
2022-08-25T20:07:01.885Z,18.45
2022-08-25T20:09:39.318Z,18.00
2022-08-25T20:12:09.292Z,14.88
2022-08-25T20:14:36.680Z,15.27
2022-08-25T20:17:22.966Z,15.18
2022-08-25T20:19:50.749Z,14.45
2022-08-25T20:22:19.216Z,12.57
2022-08-25T20:24:55.870Z,15.50
2022-08-25T20:27:25.964Z,19.70
2022-08-25T20:29:53.537Z,19.65
2022-08-25T20:32:21.023Z,15.85
2022-08-25T20:34:49.380Z,12.40
2022-08-25T20:37:17.298Z,13.50
2022-08-25T20:39:46.858Z,12.75
2022-08-25T20:42:14.396Z,19.42
2022-08-25T20:44:42.539Z,16.02
2022-08-25T20:47:11.061Z,18.30
2022-08-25T20:49:43.752Z,13.50
2022-08-25T20:52:11.991Z,15.45
2022-08-25T20:54:40.676Z,18.45
2022-08-25T20:57:08.280Z,13.68
2022-08-25T20:59:35.639Z,16.25
2022-08-25T21:02:03.273Z,16.00
2022-08-25T21:04:31.174Z,13.50
2022-08-25T21:07:01.060Z,15.70
2022-08-25T21:09:28.728Z,18.92
2022-08-25T21:11:57.356Z,15.20
2022-08-25T21:14:25.499Z,13.30
2022-08-25T21:16:54.024Z,21.45
2022-08-25T21:19:26.582Z,17.95
2022-08-25T21:21:59.599Z,19.40
2022-08-25T21:24:28.020Z,15.90
